Time;durP1;ratioP1;P1;durP2;ratioP2;P2;SDS_P1;SDS_P2;PMS_P1;PMS_P2;Temp;Humidity;BMP_temperature;BMP_pressure;BME280_temperature;BME280_humidity;BME280_pressure;Samples;Min_cycle;Max_cycle;Signal;HPM_P1;HPM_P2
2021/07/26 00:02:18;;;;;;;24.93;22.80;;;;;;;19.66;67.46;99921.38;128232;1095;22369;-78
2021/07/26 00:04:48;;;;;;;26.20;23.63;;;;;;;19.62;67.50;99918.34;128300;1095;22364;-77
2021/07/26 00:07:18;;;;;;;25.37;22.87;;;;;;;19.58;68.49;99919.88;128219;1095;22364;-76
2021/07/26 00:09:47;;;;;;;26.93;24.40;;;;;;;19.57;67.54;99923.61;128236;1095;22386;-77
2021/07/26 00:12:17;;;;;;;24.85;22.73;;;;;;;19.58;67.61;99914.52;128327;1095;22367;-77
2021/07/26 00:14:46;;;;;;;24.90;22.88;;;;;;;19.56;67.81;99911.28;128212;1095;22377;-77
2021/07/26 00:17:16;;;;;;;24.98;22.85;;;;;;;19.54;67.80;99908.01;128201;1095;22363;-77
2021/07/26 00:19:45;;;;;;;24.75;22.58;;;;;;;19.51;68.05;99897.77;128206;1095;22347;-77
2021/07/26 00:22:15;;;;;;;23.85;21.68;;;;;;;19.46;68.06;99911.04;128231;1095;22359;-78
2021/07/26 00:24:45;;;;;;;26.78;24.28;;;;;;;19.45;68.51;99915.59;128223;1095;22462;-77
2021/07/26 00:27:14;;;;;;;25.13;23.05;;;;;;;19.43;68.57;99922.25;128228;1095;22708;-77
2021/07/26 00:29:44;;;;;;;26.95;24.45;;;;;;;19.41;68.48;99913.63;128215;1095;24514;-77
2021/07/26 00:32:13;;;;;;;26.83;24.45;;;;;;;19.39;68.45;99918.39;128279;1095;22382;-77
2021/07/26 00:34:43;;;;;;;25.55;23.38;;;;;;;19.36;68.31;99917.03;128248;1098;23527;-77
2021/07/26 00:37:13;;;;;;;28.15;25.63;;;;;;;19.33;68.80;99916.69;128235;1095;24957;-77
2021/07/26 00:39:43;;;;;;;26.63;24.47;;;;;;;19.30;68.78;99903.77;128182;1096;22422;-77
2021/07/26 00:42:12;;;;;;;26.38;24.18;;;;;;;19.26;69.03;99908.78;128218;1095;22379;-77
2021/07/26 00:44:42;;;;;;;25.60;23.40;;;;;;;19.22;69.11;99902.25;128222;1095;22370;-77
2021/07/26 00:47:12;;;;;;;25.15;22.85;;;;;;;19.22;68.97;99905.73;128227;1095;24982;-78
2021/07/26 00:49:42;;;;;;;24.98;22.83;;;;;;;19.21;69.10;99904.11;128205;1095;22363;-77
2021/07/26 00:52:11;;;;;;;24.43;22.33;;;;;;;19.20;69.15;99912.39;128238;1095;22363;-77
2021/07/26 00:54:42;;;;;;;22.63;20.73;;;;;;;19.20;69.13;99913.20;128216;1095;22362;-77
2021/07/26 00:57:12;;;;;;;23.13;21.13;;;;;;;19.20;68.84;99915.08;128280;1095;22367;-77
2021/07/26 00:59:42;;;;;;;25.25;23.08;;;;;;;19.19;68.96;99918.78;128241;1097;22339;-77
2021/07/26 01:02:12;;;;;;;23.65;21.45;;;;;;;19.18;69.14;99923.33;128227;1095;22446;-77
2021/07/26 01:04:41;;;;;;;24.10;21.65;;;;;;;19.17;68.88;99916.34;128261;1095;22355;-77
2021/07/26 01:07:11;;;;;;;23.33;21.27;;;;;;;19.15;69.16;99917.63;128235;1095;22362;-77
2021/07/26 01:09:41;;;;;;;25.08;22.88;;;;;;;19.10;68.86;99921.02;128255;1095;25010;-78
2021/07/26 01:12:11;;;;;;;22.93;21.08;;;;;;;19.07;68.80;99918.00;128163;1095;22375;-76
2021/07/26 01:14:41;;;;;;;24.73;22.53;;;;;;;19.03;68.86;99914.97;128208;1095;22363;-76
2021/07/26 01:17:13;;;;;;;24.30;22.18;;;;;;;19.02;69.14;99907.97;128213;1095;22378;-77
2021/07/26 01:19:43;;;;;;;24.68;22.45;;;;;;;19.00;68.85;99913.57;128222;1095;22365;-77
2021/07/26 01:22:12;;;;;;;25.75;23.58;;;;;;;19.00;68.65;99910.09;128235;1095;24259;-77
2021/07/26 01:24:42;;;;;;;25.60;23.23;;;;;;;18.98;69.05;99925.55;128245;1095;22402;-77
2021/07/26 01:27:12;;;;;;;26.03;23.50;;;;;;;18.98;69.20;99938.94;128227;1095;22362;-77
2021/07/26 01:29:41;;;;;;;24.10;21.75;;;;;;;18.92;69.12;99915.77;128232;1095;22382;-77
2021/07/26 01:32:11;;;;;;;25.43;22.93;;;;;;;18.92;69.03;99916.58;128268;1095;22378;-76
2021/07/26 01:34:40;;;;;;;25.47;23.23;;;;;;;18.91;68.92;99904.26;128272;1095;23048;-77
2021/07/26 01:37:10;;;;;;;22.75;20.50;;;;;;;18.90;69.29;99885.77;128255;1098;22815;-77
2021/07/26 01:39:40;;;;;;;23.93;21.73;;;;;;;18.88;69.42;99885.17;128272;1095;22360;-77
2021/07/26 01:42:09;;;;;;;21.68;19.88;;;;;;;18.87;69.42;99880.88;128228;1095;22356;-77
2021/07/26 01:44:39;;;;;;;22.48;20.50;;;;;;;18.86;68.99;99860.50;128270;1095;22379;-77
2021/07/26 01:47:10;;;;;;;21.03;19.30;;;;;;;18.86;69.09;99871.20;128180;1097;24174;-77
2021/07/26 01:49:47;;;;;;;22.38;20.40;;;;;;;18.85;69.12;99880.29;128256;1095;22379;-76
2021/07/26 01:52:17;;;;;;;21.28;19.50;;;;;;;18.86;68.93;99888.10;128217;1095;22389;-77
2021/07/26 01:54:47;;;;;;;20.33;18.35;;;;;;;18.86;68.77;99904.16;128234;1095;22362;-77
2021/07/26 01:57:18;;;;;;;21.98;19.83;;;;;;;18.85;68.96;99894.48;128224;1095;22656;-77
2021/07/26 01:59:47;;;;;;;20.52;18.60;;;;;;;18.87;68.77;99886.23;128214;1098;24237;-78
2021/07/26 02:02:17;;;;;;;20.83;19.08;;;;;;;18.85;68.95;99883.78;128234;1095;22448;-78
2021/07/26 02:04:47;;;;;;;21.70;19.65;;;;;;;18.81;68.76;99878.08;128286;1095;24485;-78
2021/07/26 02:07:17;;;;;;;19.00;17.50;;;;;;;18.80;68.85;99881.81;128269;1095;22361;-78
2021/07/26 02:09:46;;;;;;;19.50;17.68;;;;;;;18.78;68.64;99870.52;128273;1095;22386;-78
2021/07/26 02:12:16;;;;;;;20.15;18.40;;;;;;;18.82;68.70;99865.51;128241;1095;22789;-77
2021/07/26 02:14:46;;;;;;;20.05;17.65;;;;;;;18.86;68.44;99865.85;128232;1098;22369;-77
2021/07/26 02:17:16;;;;;;;18.93;17.08;;;;;;;18.85;68.21;99850.85;128235;1095;22369;-76
2021/07/26 02:19:46;;;;;;;19.48;17.53;;;;;;;18.85;68.28;99848.98;128191;1095;22362;-77
2021/07/26 02:22:15;;;;;;;19.30;17.60;;;;;;;18.87;68.25;99848.77;128180;1095;22356;-77
2021/07/26 02:24:45;;;;;;;19.15;17.28;;;;;;;18.88;68.22;99842.36;128271;1095;23128;-77
2021/07/26 02:27:15;;;;;;;17.88;16.13;;;;;;;18.90;68.28;99843.77;128222;1093;22378;-78
2021/07/26 02:29:44;;;;;;;16.78;15.33;;;;;;;18.89;67.71;99852.81;128285;1095;25232;-78
2021/07/26 02:32:14;;;;;;;18.20;15.95;;;;;;;18.88;67.69;99861.91;128280;1095;22363;-77
2021/07/26 02:34:43;;;;;;;17.05;15.60;;;;;;;18.89;67.78;99858.17;128209;1095;23167;-77
2021/07/26 02:37:13;;;;;;;17.73;16.15;;;;;;;18.90;67.70;99859.81;128231;1097;24062;-78
2021/07/26 02:39:42;;;;;;;16.90;15.25;;;;;;;18.92;67.85;99878.30;128212;1095;23321;-77
2021/07/26 02:42:12;;;;;;;19.20;17.25;;;;;;;18.89;67.70;99889.47;128218;1095;22651;-76
2021/07/26 02:44:42;;;;;;;18.70;16.85;;;;;;;18.79;67.61;99882.87;128247;1095;22388;-77
2021/07/26 02:47:11;;;;;;;18.85;17.03;;;;;;;18.72;67.61;99882.14;128187;1096;22368;-77
2021/07/26 02:49:41;;;;;;;19.05;17.25;;;;;;;18.71;68.04;99883.17;128258;1095;22812;-77
2021/07/26 02:52:10;;;;;;;19.05;17.15;;;;;;;18.72;68.02;99889.36;128175;1095;22374;-77
2021/07/26 02:54:40;;;;;;;19.68;17.68;;;;;;;18.72;67.87;99887.50;128231;1095;22369;-77
2021/07/26 02:57:09;;;;;;;18.28;16.60;;;;;;;18.71;68.11;99893.88;128209;1097;22369;-76
2021/07/26 02:59:39;;;;;;;17.93;16.43;;;;;;;18.71;67.85;99888.52;128221;1098;22369;-76
2021/07/26 03:02:08;;;;;;;19.20;17.60;;;;;;;18.72;68.05;99884.01;128213;1098;22366;-77
2021/07/26 03:04:38;;;;;;;18.03;16.15;;;;;;;18.73;67.79;99891.82;128267;1095;24501;-77
2021/07/26 03:07:07;;;;;;;17.13;15.53;;;;;;;18.75;67.94;99894.25;128265;1095;22376;-78
2021/07/26 03:09:37;;;;;;;17.45;15.70;;;;;;;18.74;67.95;99892.63;128218;1095;22378;-77
2021/07/26 03:12:07;;;;;;;17.07;15.57;;;;;;;18.72;68.23;99895.52;128225;1095;22374;-78
2021/07/26 03:14:37;;;;;;;18.17;16.40;;;;;;;18.72;67.97;99892.84;128269;1095;22367;-77
2021/07/26 03:17:06;;;;;;;17.53;15.93;;;;;;;18.71;68.16;99888.52;128227;1095;24182;-78
2021/07/26 03:19:36;;;;;;;17.00;15.25;;;;;;;18.68;67.91;99897.01;128241;1095;24529;-78
2021/07/26 03:22:53;;;;;;;17.88;16.18;;;;;;;18.68;68.20;99897.01;128234;1095;22363;-78
2021/07/26 03:25:23;;;;;;;17.60;15.95;;;;;;;18.64;68.18;99900.39;128230;1095;22363;-77
2021/07/26 03:27:54;;;;;;;17.38;15.80;;;;;;;18.64;68.49;99897.72;128237;1095;24505;-78
2021/07/26 03:30:24;;;;;;;17.35;15.73;;;;;;;18.64;68.32;99906.55;128232;1095;22364;-78
2021/07/26 03:32:54;;;;;;;18.43;16.80;;;;;;;18.67;68.46;99899.93;128219;1098;22360;-78
2021/07/26 03:35:25;;;;;;;19.13;17.00;;;;;;;18.70;68.32;99905.63;128274;1097;24505;-78
2021/07/26 03:37:55;;;;;;;16.98;15.28;;;;;;;18.74;68.65;99912.17;128224;1097;22375;-77
2021/07/26 03:40:25;;;;;;;18.48;16.88;;;;;;;18.79;68.49;99909.63;128272;1095;24528;-77
2021/07/26 03:42:56;;;;;;;16.23;14.88;;;;;;;18.85;68.47;99915.08;128240;1095;22385;-78
2021/07/26 03:45:25;;;;;;;18.10;16.53;;;;;;;18.92;68.48;99915.77;128242;1095;22392;-78
2021/07/26 03:47:59;;;;;;;17.13;15.48;;;;;;;18.98;68.03;99914.84;128313;1095;22261;-78
2021/07/26 03:50:28;;;;;;;18.03;16.33;;;;;;;19.02;68.26;99913.33;128293;1095;22286;-77
2021/07/26 03:52:59;;;;;;;16.75;15.13;;;;;;;19.10;68.04;99904.14;128215;1095;22650;-77
2021/07/26 03:55:33;;;;;;;17.95;16.45;;;;;;;19.20;67.85;99899.01;128213;1095;22363;-78
2021/07/26 03:58:03;;;;;;;17.08;15.45;;;;;;;19.26;67.84;99903.42;128401;1095;23148;-78
2021/07/26 04:00:33;;;;;;;18.00;16.13;;;;;;;19.27;67.25;99910.41;128271;1095;22692;-79
2021/07/26 04:05:42;;;;;;;17.63;15.90;;;;;;;19.34;67.27;99902.23;128267;1095;22445;-78
2021/07/26 04:08:16;;;;;;;16.85;15.15;;;;;;;19.32;67.06;99899.78;128187;1095;22362;-77
2021/07/26 04:10:54;;;;;;;20.52;17.35;;;;;;;19.30;67.20;99901.09;128182;1095;22815;-77
2021/07/26 04:13:24;;;;;;;16.63;15.23;;;;;;;19.30;67.16;99895.73;128198;1098;22363;-77
2021/07/26 04:15:53;;;;;;;16.53;14.93;;;;;;;19.33;67.29;99896.08;128296;1098;23318;-77
2021/07/26 04:18:25;;;;;;;17.78;15.90;;;;;;;19.40;67.42;99898.63;128234;1098;22387;-75
2021/07/26 04:20:56;;;;;;;17.45;15.75;;;;;;;19.46;67.17;99892.29;128173;1098;22393;-76
2021/07/26 04:23:26;;;;;;;17.38;15.48;;;;;;;19.53;67.27;99901.03;128289;1096;22360;-76
2021/07/26 04:25:55;;;;;;;19.43;16.23;;;;;;;19.58;67.11;99898.44;128229;1098;22363;-76
2021/07/26 04:28:25;;;;;;;17.13;15.37;;;;;;;19.63;67.28;99895.91;128225;1098;22364;-76
2021/07/26 04:30:55;;;;;;;16.88;15.30;;;;;;;19.68;66.67;99898.66;128228;1096;24240;-76
2021/07/26 04:33:24;;;;;;;20.28;15.30;;;;;;;19.66;66.57;99902.63;128258;1097;23144;-76
2021/07/26 04:35:54;;;;;;;20.93;16.03;;;;;;;19.64;66.61;99908.23;128242;1098;22391;-77
2021/07/26 04:38:23;;;;;;;18.10;15.80;;;;;;;19.59;66.65;99905.41;128184;1098;22350;-77
2021/07/26 04:40:53;;;;;;;17.70;16.03;;;;;;;19.51;66.92;99898.58;128190;1095;22814;-77
2021/07/26 04:43:23;;;;;;;18.00;16.28;;;;;;;19.49;67.56;99892.66;128211;1095;22378;-77
2021/07/26 04:45:55;;;;;;;18.90;15.35;;;;;;;19.52;67.75;99894.02;128219;1095;22379;-77
2021/07/26 04:48:25;;;;;;;19.75;16.40;;;;;;;19.56;67.89;99903.23;128235;1098;22348;-77
2021/07/26 04:50:54;;;;;;;18.43;16.30;;;;;;;19.58;67.67;99916.38;128216;1098;22359;-77
2021/07/26 04:53:24;;;;;;;18.60;16.90;;;;;;;19.54;67.37;99920.59;128262;1095;22381;-77
2021/07/26 04:55:54;;;;;;;18.85;16.80;;;;;;;19.49;67.90;99926.64;128224;1098;25014;-77
2021/07/26 04:58:23;;;;;;;19.40;17.78;;;;;;;19.47;67.75;99920.73;128204;1095;23015;-77
2021/07/26 05:00:53;;;;;;;20.15;18.15;;;;;;;19.43;68.57;99917.70;128194;1095;22378;-79
2021/07/26 05:03:23;;;;;;;20.50;18.55;;;;;;;19.37;68.58;99926.68;128245;1095;22436;-76
2021/07/26 05:05:53;;;;;;;23.33;20.90;;;;;;;19.34;68.85;99924.47;128265;1096;22369;-75
2021/07/26 05:08:22;;;;;;;21.53;19.45;;;;;;;19.36;69.34;99933.09;128186;1098;23306;-75
2021/07/26 05:10:52;;;;;;;21.58;19.38;;;;;;;19.39;69.48;99945.19;128183;1096;22364;-76
2021/07/26 05:13:21;;;;;;;22.28;19.50;;;;;;;19.42;69.54;99940.17;128246;1098;22383;-79
2021/07/26 05:15:52;;;;;;;20.05;17.78;;;;;;;19.45;69.52;99946.92;128191;1096;22358;-76
2021/07/26 05:18:23;;;;;;;18.98;17.25;;;;;;;19.47;69.44;99948.33;128221;1098;22360;-76
2021/07/26 05:20:53;;;;;;;19.15;17.33;;;;;;;19.47;69.50;99932.25;128160;1098;24358;-77
2021/07/26 05:23:22;;;;;;;17.70;15.95;;;;;;;19.47;69.90;99934.13;128225;1097;22366;-76
2021/07/26 05:25:52;;;;;;;18.33;16.58;;;;;;;19.50;69.39;99945.17;128225;1097;23327;-76
2021/07/26 05:28:21;;;;;;;17.85;15.55;;;;;;;19.51;69.54;99941.44;128215;1098;22366;-76
2021/07/26 05:30:51;;;;;;;18.38;16.30;;;;;;;19.58;69.35;99946.66;128204;1098;22420;-76
2021/07/26 05:33:21;;;;;;;17.55;15.78;;;;;;;19.63;69.14;99932.58;128200;1098;22784;-76
2021/07/26 05:35:50;;;;;;;17.73;16.03;;;;;;;19.70;69.24;99920.69;128178;1098;25028;-76
2021/07/26 05:38:20;;;;;;;16.63;15.33;;;;;;;19.79;69.21;99923.78;128165;1098;25722;-76
2021/07/26 05:40:49;;;;;;;20.60;16.43;;;;;;;19.93;69.05;99914.43;128226;1098;22360;-78
2021/07/26 05:43:19;;;;;;;18.53;16.58;;;;;;;20.06;68.94;99924.05;128214;1098;22849;-78
2021/07/26 05:45:49;;;;;;;18.98;17.18;;;;;;;20.20;68.65;99927.25;128229;1098;22382;-79
2021/07/26 05:48:18;;;;;;;18.88;16.98;;;;;;;20.30;68.21;99921.25;128016;1098;24514;-79
2021/07/26 05:50:48;;;;;;;18.95;17.15;;;;;;;20.36;68.10;99922.94;128330;1098;22366;-84
2021/07/26 05:53:19;;;;;;;21.20;19.13;;;;;;;20.45;67.87;99922.30;128199;1098;22377;-83
2021/07/26 05:55:49;;;;;;;19.38;17.63;;;;;;;20.52;67.37;99918.67;128068;1098;22363;-80
2021/07/26 05:58:18;;;;;;;19.58;17.68;;;;;;;20.52;67.66;99919.48;128031;1098;22369;-79
2021/07/26 06:00:58;;;;;;;20.50;18.43;;;;;;;20.51;67.67;99917.86;128227;1098;22454;-80
2021/07/26 06:03:28;;;;;;;18.83;17.18;;;;;;;20.49;67.61;99922.62;128183;1098;22369;-79
2021/07/26 06:05:58;;;;;;;20.45;18.33;;;;;;;20.49;67.32;99908.39;128278;1097;22381;-79
2021/07/26 06:08:27;;;;;;;19.83;17.98;;;;;;;20.45;67.92;99918.80;128241;1098;22378;-79
2021/07/26 06:10:57;;;;;;;19.75;18.03;;;;;;;20.47;67.62;99929.31;128186;1098;24262;-79
2021/07/26 06:13:26;;;;;;;21.05;18.53;;;;;;;20.50;67.57;99931.51;128221;1098;23132;-79
2021/07/26 06:15:57;;;;;;;18.55;16.78;;;;;;;20.51;67.84;99935.84;128186;1098;24501;-79
2021/07/26 06:18:27;;;;;;;21.75;19.45;;;;;;;20.51;67.76;99942.02;128263;1098;24250;-79
2021/07/26 06:20:57;;;;;;;20.60;18.68;;;;;;;20.54;67.90;99938.04;128166;1098;22366;-79
2021/07/26 06:23:27;;;;;;;20.08;18.08;;;;;;;20.60;68.00;99948.61;128253;1098;22384;-79
2021/07/26 06:25:57;;;;;;;18.90;17.20;;;;;;;20.62;67.47;99951.84;128211;1098;24511;-79
2021/07/26 06:28:27;;;;;;;19.73;17.73;;;;;;;20.65;67.68;99937.95;128226;1097;22376;-79
2021/07/26 06:30:57;;;;;;;20.23;18.33;;;;;;;20.76;68.07;99946.16;128352;1098;22383;-79
2021/07/26 06:33:26;;;;;;;17.95;16.30;;;;;;;20.88;67.95;99953.06;128241;1098;22364;-80
2021/07/26 06:35:56;;;;;;;19.65;18.05;;;;;;;21.02;67.62;99958.10;128244;1098;22391;-80
2021/07/26 06:38:26;;;;;;;23.05;21.03;;;;;;;21.10;67.33;99952.33;128225;1098;22359;-79
2021/07/26 06:40:56;;;;;;;21.55;19.08;;;;;;;21.22;67.44;99952.21;128242;1098;25149;-79
2021/07/26 06:43:26;;;;;;;21.00;19.18;;;;;;;21.32;67.11;99955.84;128313;1098;22381;-79
2021/07/26 06:45:56;;;;;;;20.85;19.03;;;;;;;21.35;66.42;99959.95;128247;1098;22381;-79
2021/07/26 06:48:27;;;;;;;24.13;21.75;;;;;;;21.41;66.42;99963.52;128259;1098;22350;-80
2021/07/26 06:50:57;;;;;;;22.50;20.63;;;;;;;21.41;66.18;99963.52;128363;1098;22382;-79
2021/07/26 06:53:28;;;;;;;20.63;18.95;;;;;;;21.45;66.27;99962.77;128481;1098;22389;-79
2021/07/26 06:55:57;;;;;;;22.70;20.78;;;;;;;21.47;65.93;99965.22;128373;1097;22857;-79
2021/07/26 06:58:27;;;;;;;27.18;24.48;;;;;;;21.49;66.16;99969.29;128571;1098;24972;-80
2021/07/26 07:01:12;;;;;;;21.45;19.50;;;;;;;21.52;66.04;99958.02;128628;1098;24705;-80
2021/07/26 07:03:45;;;;;;;22.53;20.65;;;;;;;21.61;66.25;99966.47;128672;1098;22372;-79
2021/07/26 07:06:17;;;;;;;23.55;20.30;;;;;;;21.65;66.16;99966.78;128338;1098;22586;-80
2021/07/26 07:08:47;;;;;;;22.45;20.45;;;;;;;21.66;65.87;99971.09;128373;1098;22363;-79
2021/07/26 07:11:19;;;;;;;21.98;19.78;;;;;;;21.70;65.91;99973.04;128423;1098;22361;-79
2021/07/26 07:13:50;;;;;;;20.45;18.80;;;;;;;21.76;65.49;99968.52;128294;1098;22364;-79
2021/07/26 07:16:23;;;;;;;24.33;20.18;;;;;;;21.76;65.37;99965.83;128229;1095;22379;-77
2021/07/26 07:18:55;;;;;;;22.30;20.47;;;;;;;21.74;64.95;99974.16;128309;1097;22369;-78
2021/07/26 07:21:28;;;;;;;22.93;20.65;;;;;;;21.76;65.18;99976.58;128362;1098;22389;-78
2021/07/26 07:24:01;;;;;;;22.60;20.60;;;;;;;21.80;65.62;99983.92;128074;1098;22409;-79
2021/07/26 07:26:32;;;;;;;24.20;21.70;;;;;;;21.80;64.80;99981.23;128187;1098;22385;-79
2021/07/26 07:29:03;;;;;;;23.65;21.45;;;;;;;21.82;65.51;99981.77;128196;1098;22378;-75
2021/07/26 07:31:36;;;;;;;25.55;23.13;;;;;;;21.83;65.50;99983.42;128141;1098;22382;-76
2021/07/26 07:34:07;;;;;;;21.85;19.95;;;;;;;21.84;65.23;99989.60;128057;1098;22382;-76
2021/07/26 07:36:40;;;;;;;24.73;21.98;;;;;;;21.89;65.58;99996.91;128054;1098;22382;-76
2021/07/26 07:39:11;;;;;;;22.65;20.40;;;;;;;21.93;65.33;99992.67;128120;1098;22495;-76
2021/07/26 07:41:40;;;;;;;23.13;21.00;;;;;;;21.96;65.36;99992.98;127968;1095;22378;-76
2021/07/26 07:44:10;;;;;;;22.45;20.23;;;;;;;22.00;64.83;99990.60;128203;1095;22366;-77
2021/07/26 07:46:39;;;;;;;22.63;20.58;;;;;;;22.03;64.89;99998.17;128160;1095;24187;-75
2021/07/26 07:49:10;;;;;;;21.90;19.85;;;;;;;22.08;64.89;100007.09;128174;1095;22386;-76
2021/07/26 07:51:40;;;;;;;23.85;21.53;;;;;;;22.12;64.68;100014.66;128242;1095;22363;-76
2021/07/26 07:54:10;;;;;;;22.65;20.65;;;;;;;22.22;64.75;100004.03;128253;1095;22361;-76
2021/07/26 07:56:42;;;;;;;21.25;19.58;;;;;;;22.28;64.57;100011.91;128169;1095;22367;-76
2021/07/26 07:59:12;;;;;;;20.83;19.18;;;;;;;22.32;64.91;100012.21;128196;1097;24491;-76
2021/07/26 08:01:43;;;;;;;21.83;19.70;;;;;;;22.42;64.34;100006.93;128245;1098;22359;-76
2021/07/26 08:04:15;;;;;;;20.48;18.68;;;;;;;22.58;63.97;99996.31;128197;1095;22383;-77
2021/07/26 08:06:44;;;;;;;20.18;18.18;;;;;;;22.78;64.02;99996.49;128144;1095;22382;-77
2021/07/26 08:09:14;;;;;;;20.83;18.93;;;;;;;23.05;63.57;99993.76;128208;1095;22381;-76
2021/07/26 08:11:44;;;;;;;20.95;19.00;;;;;;;23.26;62.76;100002.81;128157;1098;24515;-75
2021/07/26 08:14:14;;;;;;;21.93;19.77;;;;;;;23.41;62.45;99999.38;128143;1095;25153;-76
2021/07/26 08:16:43;;;;;;;19.50;17.70;;;;;;;23.67;62.43;99994.94;128195;1096;24518;-76
2021/07/26 08:19:15;;;;;;;20.13;18.40;;;;;;;23.95;61.36;99993.72;128209;1098;23180;-77
2021/07/26 08:21:44;;;;;;;21.18;19.05;;;;;;;24.11;61.38;100005.38;128225;1095;22359;-77
2021/07/26 08:24:14;;;;;;;19.58;17.80;;;;;;;24.28;60.18;99994.34;128181;1095;22378;-77
2021/07/26 08:26:44;;;;;;;20.15;18.20;;;;;;;24.36;59.17;100002.74;128205;1095;22411;-77
2021/07/26 08:29:13;;;;;;;23.48;21.40;;;;;;;24.41;58.93;99994.66;128169;1098;22357;-76
2021/07/26 08:31:43;;;;;;;22.23;20.23;;;;;;;24.45;58.76;99996.83;128179;1097;22701;-77
2021/07/26 08:34:12;;;;;;;20.65;18.95;;;;;;;24.47;58.77;99986.59;128221;1098;22354;-79
2021/07/26 08:36:42;;;;;;;20.18;18.35;;;;;;;24.53;58.83;99989.02;128280;1098;24508;-79
2021/07/26 08:39:12;;;;;;;18.98;17.10;;;;;;;24.73;58.91;99984.71;128235;1097;22500;-80
2021/07/26 08:41:41;;;;;;;23.35;21.08;;;;;;;24.87;58.46;99989.29;128281;1098;22366;-78
2021/07/26 08:44:11;;;;;;;19.28;17.53;;;;;;;25.01;57.87;99994.95;128226;1098;24249;-78
2021/07/26 08:46:44;;;;;;;20.90;18.80;;;;;;;25.10;57.10;99997.92;128203;1098;22365;-79
2021/07/26 08:49:15;;;;;;;22.35;19.50;;;;;;;25.15;56.55;100003.33;128218;1098;22456;-78
2021/07/26 08:51:45;;;;;;;;;;;;;;;25.15;56.82;100008.73;128224;1098;24511;-78
2021/07/26 08:54:15;;;;;;;20.20;18.10;;;;;;;25.12;56.84;100006.58;128246;1096;21263;-78
2021/07/26 08:56:54;;;;;;;20.52;18.73;;;;;;;25.17;56.83;100011.98;128279;1097;22366;-78
2021/07/26 08:59:24;;;;;;;20.70;18.75;;;;;;;25.15;56.06;100014.14;128193;1097;23311;-79
2021/07/26 09:01:55;;;;;;;21.55;17.88;;;;;;;25.16;56.37;100017.65;128196;1098;22371;-78
2021/07/26 09:04:24;;;;;;;;;;;;;;;25.13;56.43;100019.03;128241;1098;22374;-78
2021/07/26 09:06:56;;;;;;;20.30;18.53;;;;;;;25.10;55.92;100019.54;128228;1098;22988;-78
2021/07/26 09:09:46;;;;;;;20.65;18.75;;;;;;;25.09;55.89;100029.55;128380;1096;22385;-79
2021/07/26 09:12:36;;;;;;;21.30;19.63;;;;;;;25.03;56.41;100024.41;128265;1096;22369;-80
2021/07/26 09:15:28;;;;;;;24.08;21.70;;;;;;;25.04;56.86;100015.22;128209;1098;23019;-76
2021/07/26 09:18:05;;;;;;;22.73;20.52;;;;;;;25.15;56.65;100019.55;128178;1098;22389;-78
2021/07/26 09:20:41;;;;;;;24.23;19.70;;;;;;;25.27;56.96;100014.67;128187;1098;22815;-79
2021/07/26 09:23:13;;;;;;;22.23;19.38;;;;;;;25.41;56.76;100023.02;128303;1098;24174;-78
2021/07/26 09:25:45;;;;;;;22.23;20.23;;;;;;;25.48;56.23;100025.44;128253;1098;22381;-79
2021/07/26 09:28:20;;;;;;;20.73;18.70;;;;;;;25.57;55.62;100015.69;128074;1098;25014;-80
2021/07/26 09:30:55;;;;;;;21.50;19.33;;;;;;;25.66;55.69;100013.20;128219;1098;24261;-79
2021/07/26 09:33:30;;;;;;;21.10;18.35;;;;;;;25.77;55.29;100021.02;128178;1097;22363;-78
2021/07/26 09:36:23;;;;;;;20.28;18.35;;;;;;;25.80;55.15;100023.20;128192;1098;22369;-79
2021/07/26 09:38:57;;;;;;;27.43;19.58;;;;;;;25.85;55.08;100021.56;128020;1098;24262;-79
2021/07/26 09:41:44;;;;;;;20.43;18.63;;;;;;;25.92;54.97;100022.88;128190;1098;22403;-79
2021/07/26 09:44:21;;;;;;;21.03;19.23;;;;;;;25.98;55.18;100016.35;128259;1098;22388;-78
2021/07/26 09:46:55;;;;;;;20.80;18.85;;;;;;;26.03;55.02;100023.66;128225;1098;22371;-77
2021/07/26 09:49:25;;;;;;;21.00;19.20;;;;;;;26.05;54.62;100019.56;127987;1098;22408;-79
2021/07/26 09:52:09;;;;;;;23.02;20.68;;;;;;;26.05;54.81;100010.63;128167;1098;22364;-78
2021/07/26 09:54:52;;;;;;;20.68;18.95;;;;;;;26.11;54.70;100028.47;128263;1098;22353;-78
2021/07/26 09:57:24;;;;;;;21.77;19.97;;;;;;;26.20;54.58;100024.10;128266;1098;22360;-77
2021/07/26 09:59:55;;;;;;;21.35;19.53;;;;;;;26.28;54.16;100026.20;128261;1098;22468;-79
2021/07/26 10:02:25;;;;;;;20.45;18.38;;;;;;;26.34;54.54;100023.48;127945;1098;22539;-79
2021/07/26 10:04:56;;;;;;;20.68;18.90;;;;;;;26.45;54.34;100027.73;127995;1098;22479;-79
2021/07/26 10:07:27;;;;;;;20.18;18.08;;;;;;;26.52;54.13;100033.67;128001;1098;22372;-78
2021/07/26 10:09:58;;;;;;;26.65;19.95;;;;;;;26.61;53.83;100040.11;127981;1098;22375;-78
2021/07/26 10:12:28;;;;;;;19.35;17.63;;;;;;;26.65;53.73;100030.33;128029;1098;22754;-78
2021/07/26 10:14:59;;;;;;;;;;;;;;;26.73;53.68;100032.45;128325;1098;23161;-79
2021/07/26 10:17:30;;;;;;;19.13;17.40;;;;;;;26.80;53.26;100044.88;127990;1098;21289;-78
2021/07/26 10:19:59;;;;;;;21.28;19.18;;;;;;;26.84;53.22;100040.50;127972;1096;23866;-78
2021/07/26 10:22:30;;;;;;;24.55;22.35;;;;;;;26.86;53.67;100036.42;128253;1098;22369;-79
2021/07/26 10:25:23;;;;;;;19.53;17.90;;;;;;;26.94;53.22;100034.98;128182;1095;22732;-78
2021/07/26 10:27:59;;;;;;;21.30;19.40;;;;;;;26.85;53.20;100029.36;128224;1098;24504;-79
2021/07/26 10:30:37;;;;;;;20.80;19.13;;;;;;;26.87;52.94;100034.52;128329;1098;22359;-78
2021/07/26 10:33:07;;;;;;;19.70;18.10;;;;;;;26.93;52.66;100027.96;128294;1098;22814;-78
2021/07/26 10:35:48;;;;;;;22.05;20.03;;;;;;;26.95;52.44;100028.47;128136;1098;22704;-79
2021/07/26 10:38:42;;;;;;;25.00;19.95;;;;;;;26.88;52.54;100033.41;128224;1098;22359;-78
2021/07/26 10:41:43;;;;;;;20.20;18.67;;;;;;;26.93;52.63;100027.96;128202;1098;24488;-79
2021/07/26 10:44:37;;;;;;;19.80;18.15;;;;;;;26.94;52.45;100030.38;128215;1098;22347;-79
2021/07/26 10:47:07;;;;;;;20.28;18.40;;;;;;;26.87;52.20;100029.09;128055;1098;24190;-79
2021/07/26 10:50:10;;;;;;;18.30;16.78;;;;;;;26.79;52.24;100024.27;127959;1098;22383;-79
2021/07/26 10:52:44;;;;;;;21.15;19.25;;;;;;;26.70;52.12;100027.59;127491;1101;22408;-79
2021/07/26 10:56:03;;;;;;;23.05;20.93;;;;;;;26.77;52.38;100027.27;127608;1101;25152;-78
2021/07/26 10:59:01;;;;;;;21.03;18.80;;;;;;;26.87;52.28;100015.54;127393;1100;22392;-78
2021/07/26 11:01:30;;;;;;;20.67;18.67;;;;;;;27.02;52.00;100015.39;127024;1105;22413;-78
2021/07/26 11:04:00;;;;;;;24.65;19.95;;;;;;;27.20;51.68;100022.05;126968;1105;24291;-78
2021/07/26 11:06:56;;;;;;;18.95;17.30;;;;;;;27.25;51.79;100011.13;126959;1105;22413;-77
2021/07/26 11:09:32;;;;;;;21.90;19.83;;;;;;;27.43;51.94;100020.46;126938;1107;24569;-77
2021/07/26 11:12:03;;;;;;;25.20;18.60;;;;;;;27.52;50.90;100013.28;126982;1108;24550;-78
2021/07/26 11:14:33;;;;;;;;;;;;;;;27.44;50.45;100008.50;127152;1108;24231;-78
2021/07/26 11:17:11;;;;;;;22.08;17.25;;;;;;;27.39;52.15;100017.52;127029;1108;21276;-78
2021/07/26 11:20:02;;;;;;;25.35;17.50;;;;;;;27.46;52.07;100011.75;126949;1108;22399;-78
2021/07/26 11:22:53;;;;;;;20.20;18.40;;;;;;;27.61;51.99;100003.41;126663;1108;22399;-78
2021/07/26 11:25:23;;;;;;;19.17;17.27;;;;;;;27.67;51.26;100007.69;126638;1108;22418;-78
2021/07/26 11:27:55;;;;;;;18.13;16.53;;;;;;;27.74;51.88;100009.25;126666;1108;22455;-79
2021/07/26 11:30:26;;;;;;;15.83;13.40;;;;;;;27.94;51.90;100005.50;126867;1105;22410;-79
2021/07/26 11:32:59;;;;;;;15.03;13.38;;;;;;;28.12;50.97;100013.67;126940;1107;22417;-78
2021/07/26 11:35:32;;;;;;;12.08;11.05;;;;;;;28.14;50.79;100008.73;127042;1108;24745;-78